sensor_id;sensor_type;location;lat;lon;timestamp;pressure;altitude;pressure_sealevel;temperature;humidity
59531;BME280;45349;48.692;8.186;2022-07-17T00:02:11;99426.63;;;16.32;56.29
59531;BME280;45349;48.692;8.186;2022-07-17T00:04:38;99421.38;;;16.23;56.47
59531;BME280;45349;48.692;8.186;2022-07-17T00:07:05;99421.50;;;16.22;56.94
59531;BME280;45349;48.692;8.186;2022-07-17T00:09:32;99427.78;;;16.21;56.67
59531;BME280;45349;48.692;8.186;2022-07-17T00:11:59;99420.06;;;16.19;56.61
59531;BME280;45349;48.692;8.186;2022-07-17T00:14:26;99419.56;;;16.16;56.82
59531;BME280;45349;48.692;8.186;2022-07-17T00:16:55;99422.03;;;16.09;57.06
59531;BME280;45349;48.692;8.186;2022-07-17T00:19:23;99423.84;;;16.00;57.10
59531;BME280;45349;48.692;8.186;2022-07-17T00:21:50;99423.03;;;16.00;56.92
59531;BME280;45349;48.692;8.186;2022-07-17T00:24:17;99419.75;;;15.89;57.00
59531;BME280;45349;48.692;8.186;2022-07-17T00:26:46;99414.78;;;15.86;57.36
59531;BME280;45349;48.692;8.186;2022-07-17T00:29:13;99427.84;;;15.88;57.89
59531;BME280;45349;48.692;8.186;2022-07-17T00:31:41;99426.50;;;15.84;57.92
59531;BME280;45349;48.692;8.186;2022-07-17T00:34:10;99424.34;;;15.79;58.65
59531;BME280;45349;48.692;8.186;2022-07-17T00:36:37;99430.44;;;15.79;58.43
59531;BME280;45349;48.692;8.186;2022-07-17T00:39:05;99433.22;;;15.70;58.58
59531;BME280;45349;48.692;8.186;2022-07-17T00:41:32;99423.34;;;15.63;58.23
59531;BME280;45349;48.692;8.186;2022-07-17T00:44:03;99426.47;;;15.50;58.79
59531;BME280;45349;48.692;8.186;2022-07-17T00:46:31;99420.88;;;15.45;59.25
59531;BME280;45349;48.692;8.186;2022-07-17T00:48:58;99424.50;;;15.44;59.77
59531;BME280;45349;48.692;8.186;2022-07-17T00:51:26;99421.84;;;15.36;59.06
59531;BME280;45349;48.692;8.186;2022-07-17T00:53:54;99436.00;;;15.35;59.64
59531;BME280;45349;48.692;8.186;2022-07-17T00:56:22;99429.91;;;15.34;59.33
59531;BME280;45349;48.692;8.186;2022-07-17T00:58:50;99423.16;;;15.40;59.74
59531;BME280;45349;48.692;8.186;2022-07-17T01:01:17;99426.44;;;15.34;59.68
59531;BME280;45349;48.692;8.186;2022-07-17T01:03:44;99418.72;;;15.24;59.47
59531;BME280;45349;48.692;8.186;2022-07-17T01:06:11;99411.28;;;15.19;60.20
59531;BME280;45349;48.692;8.186;2022-07-17T01:08:40;99417.72;;;15.25;60.55
59531;BME280;45349;48.692;8.186;2022-07-17T01:11:08;99410.00;;;15.24;60.47
59531;BME280;45349;48.692;8.186;2022-07-17T01:13:36;99408.50;;;15.13;60.14
59531;BME280;45349;48.692;8.186;2022-07-17T01:16:03;99407.81;;;15.02;60.58
59531;BME280;45349;48.692;8.186;2022-07-17T01:18:30;99419.81;;;15.13;60.06
59531;BME280;45349;48.692;8.186;2022-07-17T01:21:03;99409.16;;;15.15;60.69
59531;BME280;45349;48.692;8.186;2022-07-17T01:23:30;99406.66;;;15.05;60.44
59531;BME280;45349;48.692;8.186;2022-07-17T01:25:57;99407.97;;;15.01;60.86
59531;BME280;45349;48.692;8.186;2022-07-17T01:28:24;99408.78;;;14.93;60.74
59531;BME280;45349;48.692;8.186;2022-07-17T01:30:52;99408.56;;;14.86;60.75
59531;BME280;45349;48.692;8.186;2022-07-17T01:33:19;99414.66;;;14.87;60.79
59531;BME280;45349;48.692;8.186;2022-07-17T01:35:47;99413.50;;;14.81;60.78
59531;BME280;45349;48.692;8.186;2022-07-17T01:38:15;99406.09;;;14.76;61.21
59531;BME280;45349;48.692;8.186;2022-07-17T01:40:41;99406.25;;;14.75;62.25
59531;BME280;45349;48.692;8.186;2022-07-17T01:43:08;99409.34;;;14.70;61.86
59531;BME280;45349;48.692;8.186;2022-07-17T01:45:36;99412.25;;;14.67;62.45
59531;BME280;45349;48.692;8.186;2022-07-17T01:48:04;99404.38;;;14.67;62.03
59531;BME280;45349;48.692;8.186;2022-07-17T01:50:31;99402.66;;;14.76;61.88
59531;BME280;45349;48.692;8.186;2022-07-17T01:52:58;99405.94;;;14.78;61.57
59531;BME280;45349;48.692;8.186;2022-07-17T01:55:26;99399.69;;;14.71;62.03
59531;BME280;45349;48.692;8.186;2022-07-17T01:57:53;99400.59;;;14.61;62.11
59531;BME280;45349;48.692;8.186;2022-07-17T02:00:19;99395.34;;;14.61;62.48
59531;BME280;45349;48.692;8.186;2022-07-17T02:02:49;99401.41;;;14.62;63.08
59531;BME280;45349;48.692;8.186;2022-07-17T02:05:16;99403.22;;;14.61;62.40
59531;BME280;45349;48.692;8.186;2022-07-17T02:07:43;99395.22;;;14.71;61.19
59531;BME280;45349;48.692;8.186;2022-07-17T02:10:10;99402.06;;;14.64;62.17
59531;BME280;45349;48.692;8.186;2022-07-17T02:12:40;99394.84;;;14.66;62.28
59531;BME280;45349;48.692;8.186;2022-07-17T02:15:08;99388.63;;;14.67;61.60
59531;BME280;45349;48.692;8.186;2022-07-17T02:17:37;99382.50;;;14.58;62.19
59531;BME280;45349;48.692;8.186;2022-07-17T02:20:04;99381.00;;;14.56;61.63
59531;BME280;45349;48.692;8.186;2022-07-17T02:22:33;99383.81;;;14.54;61.51
59531;BME280;45349;48.692;8.186;2022-07-17T02:24:59;99383.19;;;14.60;61.86
59531;BME280;45349;48.692;8.186;2022-07-17T02:27:27;99372.16;;;14.57;61.91
59531;BME280;45349;48.692;8.186;2022-07-17T02:29:55;99373.81;;;14.66;61.20
59531;BME280;45349;48.692;8.186;2022-07-17T02:32:22;99367.25;;;14.62;61.20
59531;BME280;45349;48.692;8.186;2022-07-17T02:34:49;99359.34;;;14.62;61.65
59531;BME280;45349;48.692;8.186;2022-07-17T02:37:16;99366.09;;;14.56;61.82
59531;BME280;45349;48.692;8.186;2022-07-17T02:39:43;99359.88;;;14.66;61.45
59531;BME280;45349;48.692;8.186;2022-07-17T02:42:19;99349.16;;;14.59;61.63
59531;BME280;45349;48.692;8.186;2022-07-17T02:44:46;99344.75;;;14.59;61.58
59531;BME280;45349;48.692;8.186;2022-07-17T02:47:20;99358.28;;;14.73;62.32
59531;BME280;45349;48.692;8.186;2022-07-17T02:49:48;99356.72;;;14.62;61.79
59531;BME280;45349;48.692;8.186;2022-07-17T02:52:14;99361.25;;;14.70;62.36
59531;BME280;45349;48.692;8.186;2022-07-17T02:54:41;99354.28;;;14.60;62.03
59531;BME280;45349;48.692;8.186;2022-07-17T02:57:08;99359.53;;;14.60;61.52
59531;BME280;45349;48.692;8.186;2022-07-17T02:59:35;99365.91;;;14.58;61.11
59531;BME280;45349;48.692;8.186;2022-07-17T03:02:02;99362.28;;;14.51;61.36
59531;BME280;45349;48.692;8.186;2022-07-17T03:04:30;99363.25;;;14.50;61.48
59531;BME280;45349;48.692;8.186;2022-07-17T03:06:57;99364.72;;;14.44;62.07
59531;BME280;45349;48.692;8.186;2022-07-17T03:09:23;99362.59;;;14.47;62.24
59531;BME280;45349;48.692;8.186;2022-07-17T03:11:50;99356.22;;;14.50;62.14
59531;BME280;45349;48.692;8.186;2022-07-17T03:14:17;99358.81;;;14.42;61.95
59531;BME280;45349;48.692;8.186;2022-07-17T03:16:44;99348.09;;;14.35;62.27
59531;BME280;45349;48.692;8.186;2022-07-17T03:19:11;99352.88;;;14.40;63.13
59531;BME280;45349;48.692;8.186;2022-07-17T03:21:39;99354.34;;;14.42;62.33
59531;BME280;45349;48.692;8.186;2022-07-17T03:24:06;99345.13;;;14.30;61.66
59531;BME280;45349;48.692;8.186;2022-07-17T03:26:33;99349.88;;;14.26;62.17
59531;BME280;45349;48.692;8.186;2022-07-17T03:28:59;99344.94;;;14.23;62.46
59531;BME280;45349;48.692;8.186;2022-07-17T03:31:26;99340.03;;;14.28;63.70
59531;BME280;45349;48.692;8.186;2022-07-17T03:33:54;99345.94;;;14.30;62.88
59531;BME280;45349;48.692;8.186;2022-07-17T03:36:21;99348.06;;;14.27;62.38
59531;BME280;45349;48.692;8.186;2022-07-17T03:38:49;99348.25;;;14.34;61.82
59531;BME280;45349;48.692;8.186;2022-07-17T03:41:16;99352.53;;;14.35;61.96
59531;BME280;45349;48.692;8.186;2022-07-17T03:43:43;99355.66;;;14.38;62.16
59531;BME280;45349;48.692;8.186;2022-07-17T03:46:10;99352.72;;;14.41;62.43
59531;BME280;45349;48.692;8.186;2022-07-17T03:48:37;99354.50;;;14.32;62.43
59531;BME280;45349;48.692;8.186;2022-07-17T03:51:04;99359.56;;;14.26;61.84
59531;BME280;45349;48.692;8.186;2022-07-17T03:53:31;99353.00;;;14.30;61.95
59531;BME280;45349;48.692;8.186;2022-07-17T03:56:00;99358.13;;;14.40;62.70
59531;BME280;45349;48.692;8.186;2022-07-17T03:58:27;99360.63;;;14.50;62.52
59531;BME280;45349;48.692;8.186;2022-07-17T04:00:54;99356.53;;;14.47;61.73
59531;BME280;45349;48.692;8.186;2022-07-17T04:03:22;99352.75;;;14.50;61.63
59531;BME280;45349;48.692;8.186;2022-07-17T04:05:49;99354.25;;;14.52;61.61
59531;BME280;45349;48.692;8.186;2022-07-17T04:08:16;99357.53;;;14.54;62.00
59531;BME280;45349;48.692;8.186;2022-07-17T04:10:44;99365.41;;;14.54;62.58
59531;BME280;45349;48.692;8.186;2022-07-17T04:13:12;99365.59;;;14.61;61.94
59531;BME280;45349;48.692;8.186;2022-07-17T04:15:39;99368.72;;;14.56;62.03
59531;BME280;45349;48.692;8.186;2022-07-17T04:18:24;99365.56;;;14.53;62.13
59531;BME280;45349;48.692;8.186;2022-07-17T04:20:53;99374.44;;;14.52;62.55
59531;BME280;45349;48.692;8.186;2022-07-17T04:23:21;99372.78;;;14.51;63.05
59531;BME280;45349;48.692;8.186;2022-07-17T04:25:47;99376.91;;;14.53;62.83
59531;BME280;45349;48.692;8.186;2022-07-17T04:28:16;99378.22;;;14.49;63.51
59531;BME280;45349;48.692;8.186;2022-07-17T04:31:01;99379.84;;;14.50;63.80
59531;BME280;45349;48.692;8.186;2022-07-17T04:33:28;99374.94;;;14.55;63.91
59531;BME280;45349;48.692;8.186;2022-07-17T04:35:55;99382.00;;;14.55;64.45
59531;BME280;45349;48.692;8.186;2022-07-17T04:38:21;99378.34;;;14.47;64.28
59531;BME280;45349;48.692;8.186;2022-07-17T04:40:49;99385.25;;;14.49;65.18
59531;BME280;45349;48.692;8.186;2022-07-17T04:43:17;99381.63;;;14.50;64.84
59531;BME280;45349;48.692;8.186;2022-07-17T04:45:44;99382.63;;;14.49;64.40
59531;BME280;45349;48.692;8.186;2022-07-17T04:48:11;99382.63;;;14.49;64.95
59531;BME280;45349;48.692;8.186;2022-07-17T04:50:38;99379.00;;;14.50;65.26
59531;BME280;45349;48.692;8.186;2022-07-17T04:53:05;99379.84;;;14.50;65.45
59531;BME280;45349;48.692;8.186;2022-07-17T04:55:33;99378.88;;;14.51;65.93
59531;BME280;45349;48.692;8.186;2022-07-17T04:57:59;99382.16;;;14.53;65.41
59531;BME280;45349;48.692;8.186;2022-07-17T05:00:27;99386.13;;;14.57;65.69
59531;BME280;45349;48.692;8.186;2022-07-17T05:02:54;99391.56;;;14.64;66.21
59531;BME280;45349;48.692;8.186;2022-07-17T05:05:22;99389.59;;;14.66;65.67
59531;BME280;45349;48.692;8.186;2022-07-17T05:07:50;99391.41;;;14.66;65.54
59531;BME280;45349;48.692;8.186;2022-07-17T05:10:17;99394.56;;;14.69;64.66
59531;BME280;45349;48.692;8.186;2022-07-17T05:12:44;99389.84;;;14.73;65.42
59531;BME280;45349;48.692;8.186;2022-07-17T05:15:10;99402.47;;;14.78;65.40
59531;BME280;45349;48.692;8.186;2022-07-17T05:17:40;99397.75;;;14.81;65.31
59531;BME280;45349;48.692;8.186;2022-07-17T05:20:07;99408.25;;;14.81;66.14
59531;BME280;45349;48.692;8.186;2022-07-17T05:22:34;99402.81;;;14.83;66.05
59531;BME280;45349;48.692;8.186;2022-07-17T05:25:01;99407.41;;;14.81;65.67
59531;BME280;45349;48.692;8.186;2022-07-17T05:27:28;99404.78;;;14.81;66.11
59531;BME280;45349;48.692;8.186;2022-07-17T05:29:56;99407.41;;;14.81;66.47
59531;BME280;45349;48.692;8.186;2022-07-17T05:32:23;99405.63;;;14.81;66.33
59531;BME280;45349;48.692;8.186;2022-07-17T05:34:51;99413.03;;;14.86;66.81
59531;BME280;45349;48.692;8.186;2022-07-17T05:37:18;99407.75;;;14.86;66.38
59531;BME280;45349;48.692;8.186;2022-07-17T05:39:45;99408.56;;;14.86;66.68
59531;BME280;45349;48.692;8.186;2022-07-17T05:42:11;99407.44;;;14.89;66.77
59531;BME280;45349;48.692;8.186;2022-07-17T05:44:38;99412.72;;;14.89;66.33
59531;BME280;45349;48.692;8.186;2022-07-17T05:47:05;99410.25;;;14.96;66.22
59531;BME280;45349;48.692;8.186;2022-07-17T05:49:33;99420.94;;;14.94;66.87
59531;BME280;45349;48.692;8.186;2022-07-17T05:52:01;99417.81;;;14.99;66.29
59531;BME280;45349;48.692;8.186;2022-07-17T05:54:28;99419.81;;;15.05;65.89
59531;BME280;45349;48.692;8.186;2022-07-17T05:56:55;99420.34;;;15.17;66.18
59531;BME280;45349;48.692;8.186;2022-07-17T05:59:21;99421.19;;;15.42;65.18
59531;BME280;45349;48.692;8.186;2022-07-17T06:01:49;99418.25;;;15.62;64.50
59531;BME280;45349;48.692;8.186;2022-07-17T06:04:15;99422.34;;;15.81;63.86
59531;BME280;45349;48.692;8.186;2022-07-17T06:06:42;99429.13;;;15.92;63.44
59531;BME280;45349;48.692;8.186;2022-07-17T06:09:29;99427.66;;;16.06;63.89
59531;BME280;45349;48.692;8.186;2022-07-17T06:11:56;99433.22;;;16.19;63.43
59531;BME280;45349;48.692;8.186;2022-07-17T06:14:22;99432.69;;;16.41;62.18
59531;BME280;45349;48.692;8.186;2022-07-17T06:16:51;99430.97;;;16.56;61.37
59531;BME280;45349;48.692;8.186;2022-07-17T06:19:18;99432.22;;;16.77;61.00
59531;BME280;45349;48.692;8.186;2022-07-17T06:21:45;99438.88;;;16.96;60.35
59531;BME280;45349;48.692;8.186;2022-07-17T06:24:12;99440.94;;;17.17;59.69
59531;BME280;45349;48.692;8.186;2022-07-17T06:26:40;99447.59;;;17.36;58.98
59531;BME280;45349;48.692;8.186;2022-07-17T06:29:07;99447.56;;;17.45;58.34
59531;BME280;45349;48.692;8.186;2022-07-17T06:31:35;99451.31;;;17.50;59.29
59531;BME280;45349;48.692;8.186;2022-07-17T06:34:01;99454.88;;;17.58;59.01
59531;BME280;45349;48.692;8.186;2022-07-17T06:36:28;99453.75;;;17.75;59.13
59531;BME280;45349;48.692;8.186;2022-07-17T06:38:56;99460.34;;;18.03;57.84
59531;BME280;45349;48.692;8.186;2022-07-17T06:41:23;99457.41;;;18.12;56.47
59531;BME280;45349;48.692;8.186;2022-07-17T06:43:51;99461.53;;;18.15;57.16
59531;BME280;45349;48.692;8.186;2022-07-17T06:46:17;99464.47;;;18.20;56.93
59531;BME280;45349;48.692;8.186;2022-07-17T06:48:44;99463.31;;;18.38;55.96
59531;BME280;45349;48.692;8.186;2022-07-17T06:51:11;99468.94;;;18.50;55.62
59531;BME280;45349;48.692;8.186;2022-07-17T06:53:39;99457.94;;;18.61;54.10
59531;BME280;45349;48.692;8.186;2022-07-17T06:56:06;99457.94;;;18.61;54.01
59531;BME280;45349;48.692;8.186;2022-07-17T06:58:32;99462.38;;;18.76;54.07
59531;BME280;45349;48.692;8.186;2022-07-17T07:01:01;99452.50;;;18.84;54.27
59531;BME280;45349;48.692;8.186;2022-07-17T07:03:29;99462.09;;;18.85;54.74
59531;BME280;45349;48.692;8.186;2022-07-17T07:05:55;99467.84;;;19.04;54.34
59531;BME280;45349;48.692;8.186;2022-07-17T07:08:24;99465.38;;;19.17;53.75
59531;BME280;45349;48.692;8.186;2022-07-17T07:10:52;99470.44;;;19.19;53.46
59531;BME280;45349;48.692;8.186;2022-07-17T07:13:19;99470.19;;;19.14;52.98
59531;BME280;45349;48.692;8.186;2022-07-17T07:15:47;99479.13;;;19.13;53.62
59531;BME280;45349;48.692;8.186;2022-07-17T07:18:16;99477.50;;;19.12;53.72
59531;BME280;45349;48.692;8.186;2022-07-17T07:20:44;99473.50;;;19.38;54.06
59531;BME280;45349;48.692;8.186;2022-07-17T07:23:11;99475.03;;;19.47;53.20
59531;BME280;45349;48.692;8.186;2022-07-17T07:25:37;99476.44;;;19.65;53.27
59531;BME280;45349;48.692;8.186;2022-07-17T07:28:05;99480.41;;;19.54;53.08
59531;BME280;45349;48.692;8.186;2022-07-17T07:30:32;99478.97;;;19.73;52.65
59531;BME280;45349;48.692;8.186;2022-07-17T07:32:59;99477.81;;;19.60;52.59
59531;BME280;45349;48.692;8.186;2022-07-17T07:35:28;99487.91;;;19.72;53.03
59531;BME280;45349;48.692;8.186;2022-07-17T07:37:55;99478.56;;;19.76;52.67
59531;BME280;45349;48.692;8.186;2022-07-17T07:40:23;99482.75;;;19.85;51.89
59531;BME280;45349;48.692;8.186;2022-07-17T07:42:49;99481.66;;;19.80;52.76
59531;BME280;45349;48.692;8.186;2022-07-17T07:45:16;99488.81;;;20.01;52.90
59531;BME280;45349;48.692;8.186;2022-07-17T07:47:45;99479.09;;;20.08;52.54
59531;BME280;45349;48.692;8.186;2022-07-17T07:50:13;99475.56;;;20.29;51.95
59531;BME280;45349;48.692;8.186;2022-07-17T07:52:42;99476.28;;;20.45;51.90
59531;BME280;45349;48.692;8.186;2022-07-17T07:55:11;99475.53;;;20.58;51.25
59531;BME280;45349;48.692;8.186;2022-07-17T07:57:38;99468.44;;;20.72;50.37
59531;BME280;45349;48.692;8.186;2022-07-17T08:00:06;99477.84;;;20.74;50.74
59531;BME280;45349;48.692;8.186;2022-07-17T08:02:41;99478.13;;;20.79;50.05
59531;BME280;45349;48.692;8.186;2022-07-17T08:05:08;99479.16;;;20.85;49.94
59531;BME280;45349;48.692;8.186;2022-07-17T08:07:36;99481.06;;;20.98;49.32
59531;BME280;45349;48.692;8.186;2022-07-17T08:10:05;99482.94;;;21.04;48.94
59531;BME280;45349;48.692;8.186;2022-07-17T08:12:32;99484.16;;;21.08;49.17
59531;BME280;45349;48.692;8.186;2022-07-17T08:14:59;99481.13;;;21.18;48.66
59531;BME280;45349;48.692;8.186;2022-07-17T08:17:26;99486.47;;;21.32;48.89
59531;BME280;45349;48.692;8.186;2022-07-17T08:19:53;99484.44;;;21.41;48.52
59531;BME280;45349;48.692;8.186;2022-07-17T08:22:20;99487.31;;;21.46;48.04
59531;BME280;45349;48.692;8.186;2022-07-17T08:24:46;99477.53;;;21.53;48.16
59531;BME280;45349;48.692;8.186;2022-07-17T08:27:15;99475.31;;;21.57;47.47
59531;BME280;45349;48.692;8.186;2022-07-17T08:29:42;99473.09;;;21.67;47.09
59531;BME280;45349;48.692;8.186;2022-07-17T08:32:10;99477.38;;;21.75;46.97
59531;BME280;45349;48.692;8.186;2022-07-17T08:34:36;99473.31;;;21.79;46.80
59531;BME280;45349;48.692;8.186;2022-07-17T08:37:03;99471.25;;;21.81;45.78
59531;BME280;45349;48.692;8.186;2022-07-17T08:39:30;99473.50;;;21.91;46.08
59531;BME280;45349;48.692;8.186;2022-07-17T08:41:58;99469.81;;;22.05;45.56
59531;BME280;45349;48.692;8.186;2022-07-17T08:44:26;99473.31;;;22.19;45.12
59531;BME280;45349;48.692;8.186;2022-07-17T08:46:53;99482.66;;;22.42;44.86
59531;BME280;45349;48.692;8.186;2022-07-17T08:49:21;99481.63;;;22.56;44.70
59531;BME280;45349;48.692;8.186;2022-07-17T08:51:49;99480.38;;;22.66;44.06
59531;BME280;45349;48.692;8.186;2022-07-17T08:54:16;99481.56;;;22.83;44.14
59531;BME280;45349;48.692;8.186;2022-07-17T08:56:43;99485.59;;;23.06;42.83
59531;BME280;45349;48.692;8.186;2022-07-17T08:59:10;99474.47;;;23.16;41.70
59531;BME280;45349;48.692;8.186;2022-07-17T09:01:39;99472.72;;;23.35;40.28
59531;BME280;45349;48.692;8.186;2022-07-17T09:04:06;99485.25;;;23.35;40.51
59531;BME280;45349;48.692;8.186;2022-07-17T09:06:35;99475.81;;;23.39;41.54
59531;BME280;45349;48.692;8.186;2022-07-17T09:09:06;99476.19;;;23.42;42.09
59531;BME280;45349;48.692;8.186;2022-07-17T09:11:45;99479.00;;;23.54;38.87
59531;BME280;45349;48.692;8.186;2022-07-17T09:14:12;99476.41;;;23.73;39.23
59531;BME280;45349;48.692;8.186;2022-07-17T09:16:53;99479.94;;;23.92;39.53
59531;BME280;45349;48.692;8.186;2022-07-17T09:19:27;99464.28;;;24.02;37.68
59531;BME280;45349;48.692;8.186;2022-07-17T09:22:05;99469.78;;;24.08;37.30
59531;BME280;45349;48.692;8.186;2022-07-17T09:24:40;99463.22;;;24.29;37.77
59531;BME280;45349;48.692;8.186;2022-07-17T09:27:08;99471.47;;;24.27;37.66
59531;BME280;45349;48.692;8.186;2022-07-17T09:29:35;99461.66;;;24.40;37.78
59531;BME280;45349;48.692;8.186;2022-07-17T09:32:18;99458.34;;;24.44;37.36
59531;BME280;45349;48.692;8.186;2022-07-17T09:34:45;99456.78;;;24.55;37.42
59531;BME280;45349;48.692;8.186;2022-07-17T09:37:12;99452.63;;;24.59;37.81
59531;BME280;45349;48.692;8.186;2022-07-17T09:39:39;99459.91;;;24.71;37.56
59531;BME280;45349;48.692;8.186;2022-07-17T09:42:08;99457.09;;;24.84;37.31
59531;BME280;45349;48.692;8.186;2022-07-17T09:44:35;99466.00;;;24.78;37.61
59531;BME280;45349;48.692;8.186;2022-07-17T09:47:02;99463.19;;;24.73;36.76
59531;BME280;45349;48.692;8.186;2022-07-17T09:49:31;99453.66;;;24.58;36.81
59531;BME280;45349;48.692;8.186;2022-07-17T09:52:00;99454.72;;;24.76;36.16
59531;BME280;45349;48.692;8.186;2022-07-17T09:54:28;99466.44;;;24.94;37.16
59531;BME280;45349;48.692;8.186;2022-07-17T09:56:58;99468.06;;;24.95;36.51
59531;BME280;45349;48.692;8.186;2022-07-17T09:59:28;99457.44;;;25.06;37.00
59531;BME280;45349;48.692;8.186;2022-07-17T10:01:59;99462.91;;;25.12;37.29
59531;BME280;45349;48.692;8.186;2022-07-17T10:04:26;99465.22;;;25.08;36.68
59531;BME280;45349;48.692;8.186;2022-07-17T10:06:54;99448.75;;;25.11;37.02
59531;BME280;45349;48.692;8.186;2022-07-17T10:09:21;99445.31;;;25.23;36.24
59531;BME280;45349;48.692;8.186;2022-07-17T10:11:50;99449.03;;;25.22;35.96
59531;BME280;45349;48.692;8.186;2022-07-17T10:14:17;99445.44;;;25.28;36.04
59531;BME280;45349;48.692;8.186;2022-07-17T10:16:45;99441.00;;;25.52;36.96
59531;BME280;45349;48.692;8.186;2022-07-17T10:19:17;99450.50;;;25.48;35.57
59531;BME280;45349;48.692;8.186;2022-07-17T10:21:53;99432.16;;;25.52;35.30
59531;BME280;45349;48.692;8.186;2022-07-17T10:24:23;99433.91;;;25.58;34.94
59531;BME280;45349;48.692;8.186;2022-07-17T10:26:50;99437.03;;;25.55;35.01
59531;BME280;45349;48.692;8.186;2022-07-17T10:29:34;99438.94;;;25.78;35.50
59531;BME280;45349;48.692;8.186;2022-07-17T10:32:07;99433.22;;;25.62;34.51
59531;BME280;45349;48.692;8.186;2022-07-17T10:34:39;99440.31;;;25.81;34.47
59531;BME280;45349;48.692;8.186;2022-07-17T10:37:17;99430.81;;;25.97;34.43
59531;BME280;45349;48.692;8.186;2022-07-17T10:40:02;99440.69;;;25.96;34.19
59531;BME280;45349;48.692;8.186;2022-07-17T10:42:49;99437.09;;;25.90;34.03
59531;BME280;45349;48.692;8.186;2022-07-17T10:45:18;99420.78;;;26.04;33.63
59531;BME280;45349;48.692;8.186;2022-07-17T10:47:48;99426.50;;;26.07;33.10
59531;BME280;45349;48.692;8.186;2022-07-17T10:50:16;99428.38;;;26.19;32.88
59531;BME280;45349;48.692;8.186;2022-07-17T10:52:43;99428.59;;;26.17;33.38
59531;BME280;45349;48.692;8.186;2022-07-17T10:55:22;99426.84;;;26.35;33.04
59531;BME280;45349;48.692;8.186;2022-07-17T10:57:49;99424.16;;;26.47;32.69
59531;BME280;45349;48.692;8.186;2022-07-17T11:00:17;99431.69;;;26.62;32.41
59531;BME280;45349;48.692;8.186;2022-07-17T11:02:46;99439.25;;;26.53;32.47
59531;BME280;45349;48.692;8.186;2022-07-17T11:05:13;99432.69;;;26.73;32.65
59531;BME280;45349;48.692;8.186;2022-07-17T11:07:52;99428.59;;;26.82;32.12
59531;BME280;45349;48.692;8.186;2022-07-17T11:10:22;99427.31;;;26.73;31.69
59531;BME280;45349;48.692;8.186;2022-07-17T11:12:51;99421.19;;;26.72;32.15
59531;BME280;45349;48.692;8.186;2022-07-17T11:15:17;99421.03;;;26.79;32.01
59531;BME280;45349;48.692;8.186;2022-07-17T11:17:46;99427.28;;;26.96;32.13
59531;BME280;45349;48.692;8.186;2022-07-17T11:20:15;99416.00;;;26.94;31.11
59531;BME280;45349;48.692;8.186;2022-07-17T11:22:42;99427.75;;;26.93;30.69
59531;BME280;45349;48.692;8.186;2022-07-17T11:25:09;99428.97;;;26.86;31.28
59531;BME280;45349;48.692;8.186;2022-07-17T11:27:38;99427.13;;;27.03;31.06
59531;BME280;45349;48.692;8.186;2022-07-17T11:30:11;99422.53;;;27.16;30.17
59531;BME280;45349;48.692;8.186;2022-07-17T11:32:41;99419.03;;;27.15;30.61
59531;BME280;45349;48.692;8.186;2022-07-17T11:35:15;99417.03;;;27.22;30.67
59531;BME280;45349;48.692;8.186;2022-07-17T11:37:42;99411.84;;;27.33;30.18
59531;BME280;45349;48.692;8.186;2022-07-17T11:40:09;99421.94;;;27.60;30.71
59531;BME280;45349;48.692;8.186;2022-07-17T11:42:38;99418.94;;;27.73;31.20
59531;BME280;45349;48.692;8.186;2022-07-17T11:45:06;99425.91;;;27.74;32.02
59531;BME280;45349;48.692;8.186;2022-07-17T11:47:33;99413.59;;;27.56;28.80
59531;BME280;45349;48.692;8.186;2022-07-17T11:50:05;99428.78;;;27.50;29.34
59531;BME280;45349;48.692;8.186;2022-07-17T11:52:39;99414.91;;;27.53;29.22
59531;BME280;45349;48.692;8.186;2022-07-17T11:55:07;99425.66;;;27.59;28.78
59531;BME280;45349;48.692;8.186;2022-07-17T11:57:44;99412.19;;;27.70;28.33
59531;BME280;45349;48.692;8.186;2022-07-17T12:00:13;99413.47;;;27.68;28.62
59531;BME280;45349;48.692;8.186;2022-07-17T12:02:39;99424.44;;;27.83;28.83
59531;BME280;45349;48.692;8.186;2022-07-17T12:05:07;99411.03;;;27.83;27.38
59531;BME280;45349;48.692;8.186;2022-07-17T12:07:43;99416.25;;;27.90;27.72
59531;BME280;45349;48.692;8.186;2022-07-17T12:10:30;99413.00;;;27.88;28.54
59531;BME280;45349;48.692;8.186;2022-07-17T12:13:00;99414.84;;;27.88;27.12
59531;BME280;45349;48.692;8.186;2022-07-17T12:15:35;99415.72;;;28.10;27.29
59531;BME280;45349;48.692;8.186;2022-07-17T12:18:03;99411.34;;;28.04;26.54
59531;BME280;45349;48.692;8.186;2022-07-17T12:20:41;99411.88;;;27.84;27.90
59531;BME280;45349;48.692;8.186;2022-07-17T12:23:08;99415.75;;;27.76;26.45
59531;BME280;45349;48.692;8.186;2022-07-17T12:25:35;99421.34;;;27.92;26.83
59531;BME280;45349;48.692;8.186;2022-07-17T12:28:03;99410.44;;;28.16;25.76
59531;BME280;45349;48.692;8.186;2022-07-17T12:30:30;99416.88;;;28.37;26.46
59531;BME280;45349;48.692;8.186;2022-07-17T12:32:58;99419.81;;;28.35;24.94
59531;BME280;45349;48.692;8.186;2022-07-17T12:35:25;99421.66;;;28.52;24.96
59531;BME280;45349;48.692;8.186;2022-07-17T12:37:51;99417.41;;;28.56;24.77
59531;BME280;45349;48.692;8.186;2022-07-17T12:40:18;99427.63;;;28.59;25.42
59531;BME280;45349;48.692;8.186;2022-07-17T12:42:45;99417.50;;;28.66;24.57
59531;BME280;45349;48.692;8.186;2022-07-17T12:45:13;99417.19;;;28.63;24.28
59531;BME280;45349;48.692;8.186;2022-07-17T12:47:40;99416.56;;;28.78;23.67
59531;BME280;45349;48.692;8.186;2022-07-17T12:50:08;99413.09;;;28.55;24.33
59531;BME280;45349;48.692;8.186;2022-07-17T12:52:53;99420.75;;;28.68;23.28
59531;BME280;45349;48.692;8.186;2022-07-17T12:55:20;99414.88;;;28.71;24.84
59531;BME280;45349;48.692;8.186;2022-07-17T12:57:47;99417.03;;;28.75;23.32
59531;BME280;45349;48.692;8.186;2022-07-17T13:00:16;99404.69;;;28.73;23.58
59531;BME280;45349;48.692;8.186;2022-07-17T13:02:43;99413.78;;;28.72;23.67
59531;BME280;45349;48.692;8.186;2022-07-17T13:05:10;99415.66;;;28.94;23.45
59531;BME280;45349;48.692;8.186;2022-07-17T13:07:36;99410.19;;;28.84;22.12